Onweer radar Meer informatie blitzortung!


Regen radar Meer informatie rain snow radar


Apparatuur in gebruik:

Davis VP2

Meteohub

ALIX 1D

Web-Oke


METAR rapporten vliegvelden

   
EHAM - Amsterdam/Schiph, Netherlands
Afstand tot: WZW 42 km
Gewijzigd: 13-08-2022 14:25
Helder  
Helder  
   Wind: varieert 9.3 km/h
Wind: varieert 9.3 km/h
Temperatuur: 30°C
Dauwpunt: 11°C
Vochtigheid: 31%
Barometer: 1016 hPa
Zicht: meer dan 10 km
Bewolking: Helder
EHAM 131225Z VRB05KT CAVOK 30/11 Q1016 NOSIG
EHDL - Deelen Rnlafb, Netherlands
Afstand tot: ZO 49 km
Gewijzigd: 13-08-2022 14:25
Helder  
Helder  
   Wind: varieert 9.3 km/h<br />Gust to 9.3 km/h
Wind: varieert 9.3 km/h
Gust to 9.3 km/h
Temperatuur: 31°C
Dauwpunt: 7°C
Vochtigheid: 22%
Barometer: 1016 hPa
Bewolking: Helder
Zicht: meer dan 10 km
Bewolking: Helder
EHDL 131225Z AUTO VRB05G15KT 9999 NCD 31/07 Q1016 BLU
EHKD - De Kooy (navy), Netherlands
Afstand tot: NW 72 km
Gewijzigd: 13-08-2022 14:25
Helder  
Helder  
   Wind: NO 16.7 km/h
Wind: NO 16.7 km/h
Temperatuur: 28°C
Gevoelstemperatuur: 28°C
Dauwpunt: 15°C
Vochtigheid: 45%
Barometer: 1017 hPa
Bewolking: Helder
Zicht: meer dan 10 km
Bewolking: Helder
EHKD 131225Z AUTO 05009KT 020V080 9999 NCD 28/15 Q1017 BLU
EHRD - Rotterdam Airpor, Netherlands
Afstand tot: ZW 80 km
Gewijzigd: 13-08-2022 14:25
Helder  
Helder  
   Wind: OZO 13 km/h
Wind: OZO 13 km/h
Temperatuur: 31°C
Dauwpunt: 10°C
Vochtigheid: 27%
Barometer: 1015 hPa
Bewolking: Helder
Zicht: meer dan 10 km
Bewolking: Helder
EHRD 131225Z AUTO 11007KT 050V180 9999 NCD 31/10 Q1015 NOSIG
EHVK - Volkel Rnlafb, Netherlands
Afstand tot: ZZO 87 km
Gewijzigd: 13-08-2022 14:25
Helder  
Helder  
   Wind: Oosten 13 km/h
Wind: Oosten 13 km/h
Temperatuur: 31°C
Dauwpunt: 7°C
Vochtigheid: 22%
Barometer: 1016 hPa
Bewolking: Helder
Zicht: meer dan 10 km
Bewolking: Helder
EHVK 131225Z AUTO 10007KT 030V190 9999 NCD 31/07 Q1016 BLU
EHLW - Leeuwarden Rnlaf, Netherlands
Afstand tot: NNO 95 km
Gewijzigd: 13-08-2022 14:25
Helder  
Helder  
   Wind: OZO 16.7 km/h
Wind: OZO 16.7 km/h
Temperatuur: 29°C
Dauwpunt: 10°C
Vochtigheid: 31%
Barometer: 1017 hPa
Bewolking: Helder
Zicht: meer dan 10 km
Bewolking: Helder
EHLW 131225Z AUTO 12009KT 070V160 9999 NCD 29/10 Q1017 BLU

Script ontwikkeld door  Saratoga-weather.org Aangepast voor de template door  Weerstation Leuven

U vindt ons ook hier:

Het Weer Aktueel

UK Metoffice

European Weather Network

Weather Underground

Benelux Weer Netwerk

AWEKAS